Hauptseite
METAR-TAF:

METAR-TAF

Flughäfen :

Tulcea, Rumänien

Breite: 45-11N, Länge: 028-49E, Höhe: 4 m

Beobachtung

Neuester Wetterbericht von vor 38 Minuten, um 00:00 UTC
Wind 8 kt aus Nord
Temperatur 24°C
Luftfeuchtigkeit 69%
Luftdruck 1017 hPa
Sichtweite 10 km oder mehr

METAR: LRTC 210000Z AUTO 35008KT 9999 SCT080/// BKN140/// 24/18 Q1017

Zeit: 03:38 (00:38 UTC)

Prognose

Neuester Wetterbericht von vor 10 Stunden und 38 Minuten, um 14:00 UTC
Gültige Prognose vom 20 um 15 UTC bis 20 um 24 UTC
Wind 4 kt aus unterschiedlichen Richtungen
Sichtweite 10 km oder mehr
keine Wolken unter 1500 m und keine Kumulonimbus oder Gewitterwolken
Zeitweise
vom 20 um 16 UTC bis 20 um 24 UTC
Leicht bewölkt in der Höhe von 5000 ft, Kumulonimbus.

TAF: LRTC 201400Z 2015/2024 VRB04KT CAVOK TEMPO 2016/2024 FEW050CB

Wetterbeobachtungen und Prognosen von mehr als 4000 Flughäfen (METAR und TAF Bericht).

Die verfügbaren Stationen werden durch gelbe und rote Markierungen auf der Karte dargestellt.

Führen Sie die Maus auf sie, um den Namen der Station zu sehen.

Darauf klicken, um die Beobachtung von Wetterbeobachtungen und Prognosen zu sehen.

Um die Karte zu ändern : klicken Sie auf den grünen Tasten mit einem schwarzen Kreuz Zum Vergrößern, auf den grünen Button mit einem Gedankenstrich zu verkleinern, oder auf die grünen Pfeile für benachbarte Karten.


METAR-TAF: